Time;durP1;ratioP1;P1;durP2;ratioP2;P2;SDS_P1;SDS_P2;PMS_P1;PMS_P2;Temp;Humidity;BMP_temperature;BMP_pressure;BME280_temperature;BME280_humidity;BME280_pressure;Samples;Min_cycle;Max_cycle;Signal;HPM_P1;HPM_P2
2022/06/28 00:01:42;;;;;;;17.20;11.18;;;;;;;;;;5014250;28;20053;-82
2022/06/28 00:04:08;;;;;;;16.27;10.77;;;;;;;;;;5014080;28;20403;-83
2022/06/28 00:06:34;;;;;;;11.27;10.02;;;;;;;;;;5031392;28;20065;-83
2022/06/28 00:09:01;;;;;;;12.25;9.57;;;;;;;;;;5030020;28;20057;-83
2022/06/28 00:11:27;;;;;;;12.32;9.98;;;;;;;;;;5030322;28;20171;-83
2022/06/28 00:13:53;;;;;;;15.10;10.05;;;;;;;;;;5030450;28;20087;-82
2022/06/28 00:16:19;;;;;;;13.68;9.73;;;;;;;;;;5030612;28;20122;-83
2022/06/28 00:18:45;;;;;;;15.05;9.60;;;;;;;;;;5030413;28;20048;-83
2022/06/28 00:21:11;;;;;;;14.48;9.90;;;;;;;;;;5028942;28;20580;-83
2022/06/28 00:23:38;;;;;;;14.02;9.32;;;;;;;;;;5030161;28;20490;-83
2022/06/28 00:26:05;;;;;;;13.48;8.70;;;;;;;;;;5030142;28;20077;-82
2022/06/28 00:28:31;;;;;;;12.57;9.73;;;;;;;;;;5030716;28;20045;-83
2022/06/28 00:30:57;;;;;;;11.27;8.98;;;;;;;;;;5030028;28;20037;-82
2022/06/28 00:33:23;;;;;;;13.82;9.05;;;;;;;;;;5013461;28;20128;-83
2022/06/28 00:35:49;;;;;;;11.32;8.70;;;;;;;;;;5029221;28;20167;-83
2022/06/28 00:38:16;;;;;;;13.32;9.38;;;;;;;;;;5029361;28;20049;-83
2022/06/28 00:40:46;;;;;;;13.90;8.98;;;;;;;;;;5031766;28;20053;-83
2022/06/28 00:43:13;;;;;;;10.50;7.93;;;;;;;;;;5027895;28;20517;-83
2022/06/28 00:45:39;;;;;;;9.43;8.43;;;;;;;;;;5030178;28;20076;-83
2022/06/28 00:48:05;;;;;;;12.93;8.68;;;;;;;;;;5030840;28;20049;-83
2022/06/28 00:50:34;;;;;;;10.13;8.57;;;;;;;;;;5028743;28;20099;-82
2022/06/28 00:53:01;;;;;;;13.88;8.88;;;;;;;;;;5029312;28;20492;-83
2022/06/28 00:55:27;;;;;;;10.40;8.40;;;;;;;;;;5029860;28;20050;-83
2022/06/28 00:57:53;;;;;;;12.68;8.63;;;;;;;;;;5012821;28;20108;-82
2022/06/28 01:00:19;;;;;;;13.90;9.20;;;;;;;;;;5028511;28;20042;-83
2022/06/28 01:02:45;;;;;;;12.63;8.95;;;;;;;;;;5013289;28;20211;-83
2022/06/28 01:05:14;;;;;;;13.70;9.00;;;;;;;;;;5012104;28;20037;-82
2022/06/28 01:07:41;;;;;;;13.60;8.90;;;;;;;;;;5029123;28;20053;-83
2022/06/28 01:10:08;;;;;;;13.20;8.93;;;;;;;;;;5030422;28;20053;-83
2022/06/28 01:12:34;;;;;;;12.73;9.77;;;;;;;;;;5029174;28;20108;-83
2022/06/28 01:15:01;;;;;;;10.88;8.50;;;;;;;;;;5029429;28;20542;-83
2022/06/28 01:17:27;;;;;;;15.27;9.30;;;;;;;;;;5031088;28;20077;-82
2022/06/28 01:19:53;;;;;;;12.40;9.25;;;;;;;;;;5028536;28;20065;-82
2022/06/28 01:22:20;;;;;;;15.27;9.45;;;;;;;;;;5030074;28;20056;-82
2022/06/28 01:24:46;;;;;;;14.20;10.57;;;;;;;;;;5030983;28;20041;-83
2022/06/28 01:27:12;;;;;;;13.52;9.88;;;;;;;;;;5030341;28;20072;-83
2022/06/28 01:29:38;;;;;;;14.75;10.60;;;;;;;;;;5027506;28;20124;-83
2022/06/28 01:32:05;;;;;;;14.10;10.07;;;;;;;;;;5029589;28;20033;-83
2022/06/28 01:34:31;;;;;;;13.80;9.80;;;;;;;;;;5030376;28;20056;-82
2022/06/28 01:36:57;;;;;;;16.20;10.82;;;;;;;;;;5029315;28;20135;-82
2022/06/28 01:39:23;;;;;;;14.65;9.88;;;;;;;;;;5030463;28;20103;-83
2022/06/28 01:41:52;;;;;;;14.65;10.45;;;;;;;;;;5030381;28;20521;-83
2022/06/28 01:44:19;;;;;;;16.23;10.80;;;;;;;;;;5028242;28;20497;-83
2022/06/28 01:46:45;;;;;;;14.25;10.50;;;;;;;;;;5030132;28;20129;-83
2022/06/28 01:49:11;;;;;;;15.23;10.88;;;;;;;;;;5029503;28;20045;-82
2022/06/28 01:51:37;;;;;;;16.70;11.15;;;;;;;;;;5029965;28;20535;-83
2022/06/28 01:54:03;;;;;;;13.15;11.48;;;;;;;;;;5029441;28;20057;-83
2022/06/28 01:56:30;;;;;;;15.20;11.60;;;;;;;;;;5028581;28;20073;-82
2022/06/28 01:58:56;;;;;;;19.05;12.25;;;;;;;;;;5026093;28;20402;-82
2022/06/28 02:01:23;;;;;;;20.08;11.70;;;;;;;;;;5028576;28;20052;-82
2022/06/28 02:03:51;;;;;;;17.95;10.98;;;;;;;;;;5028244;28;20056;-83
2022/06/28 02:06:17;;;;;;;13.43;10.90;;;;;;;;;;5029829;28;20133;-83
2022/06/28 02:08:43;;;;;;;16.50;11.50;;;;;;;;;;5029705;28;20079;-83
2022/06/28 02:11:09;;;;;;;17.77;11.23;;;;;;;;;;5029518;28;20045;-82
2022/06/28 02:13:35;;;;;;;16.60;11.82;;;;;;;;;;5026727;28;20045;-82
2022/06/28 02:16:02;;;;;;;16.42;11.77;;;;;;;;;;5027923;28;20478;-82
2022/06/28 02:18:30;;;;;;;18.67;11.98;;;;;;;;;;5011594;28;20073;-83
2022/06/28 02:20:57;;;;;;;16.85;11.70;;;;;;;;;;5028266;28;20115;-82
2022/06/28 02:23:23;;;;;;;13.85;11.20;;;;;;;;;;5028455;28;20096;-83
2022/06/28 02:25:49;;;;;;;16.10;11.40;;;;;;;;;;5028454;28;20045;-83
2022/06/28 02:28:15;;;;;;;21.33;12.40;;;;;;;;;;5027034;28;20056;-82
2022/06/28 02:30:41;;;;;;;17.17;11.55;;;;;;;;;;5010055;28;20049;-83
2022/06/28 02:33:07;;;;;;;16.73;10.68;;;;;;;;;;4991910;28;20548;-82
2022/06/28 02:41:02;;;;;;;16.65;10.77;;;;;;;;;;5009758;28;20145;-83
2022/06/28 02:43:28;;;;;;;18.60;10.80;;;;;;;;;;5021582;28;20038;-83
2022/06/28 02:45:54;;;;;;;18.70;11.05;;;;;;;;;;5029331;28;20049;-82
2022/06/28 02:48:20;;;;;;;16.83;10.73;;;;;;;;;;5028853;28;20140;-82
2022/06/28 02:50:46;;;;;;;18.42;10.82;;;;;;;;;;5028137;28;20124;-83
2022/06/28 02:53:13;;;;;;;18.42;11.88;;;;;;;;;;5027748;28;20140;-83
2022/06/28 02:55:39;;;;;;;23.65;12.18;;;;;;;;;;5029501;28;20049;-83
2022/06/28 02:58:05;;;;;;;18.35;11.77;;;;;;;;;;5026394;28;20049;-83
2022/06/28 03:00:31;;;;;;;20.20;11.65;;;;;;;;;;5027981;28;20103;-83
2022/06/28 03:02:57;;;;;;;20.02;11.25;;;;;;;;;;5027789;28;20061;-83
2022/06/28 03:05:24;;;;;;;18.77;10.25;;;;;;;;;;5028044;28;20124;-83
2022/06/28 03:07:50;;;;;;;16.70;11.23;;;;;;;;;;5032546;28;20037;-83
2022/06/28 03:10:18;;;;;;;16.85;11.00;;;;;;;;;;5032947;28;20148;-83
2022/06/28 03:12:44;;;;;;;16.77;10.52;;;;;;;;;;5029420;28;20460;-83
2022/06/28 03:15:11;;;;;;;18.77;11.07;;;;;;;;;;5031208;28;20482;-82
2022/06/28 03:17:37;;;;;;;19.55;11.80;;;;;;;;;;5031243;28;20051;-82
2022/06/28 03:20:03;;;;;;;19.67;11.27;;;;;;;;;;5031355;28;20521;-83
2022/06/28 03:22:29;;;;;;;16.33;10.30;;;;;;;;;;5031183;28;20056;-82
2022/06/28 03:24:56;;;;;;;17.60;11.60;;;;;;;;;;5032574;28;20056;-83
2022/06/28 03:27:22;;;;;;;17.75;11.18;;;;;;;;;;5023587;28;20050;-82
2022/06/28 03:29:51;;;;;;;19.00;10.38;;;;;;;;;;5026000;28;20514;-83
2022/06/28 03:32:17;;;;;;;16.35;11.00;;;;;;;;;;5030829;28;20133;-83
2022/06/28 03:34:43;;;;;;;16.13;10.80;;;;;;;;;;5032978;28;20063;-83
2022/06/28 03:37:09;;;;;;;18.35;11.70;;;;;;;;;;5032726;28;20099;-83
2022/06/28 03:39:35;;;;;;;18.50;11.40;;;;;;;;;;5031670;28;20394;-83
2022/06/28 03:42:02;;;;;;;20.27;12.20;;;;;;;;;;5030323;28;20441;-83
2022/06/28 03:44:28;;;;;;;19.92;11.15;;;;;;;;;;5033177;28;20038;-83
2022/06/28 03:46:54;;;;;;;18.17;11.10;;;;;;;;;;5031230;28;20124;-82
2022/06/28 03:49:20;;;;;;;17.40;11.35;;;;;;;;;;5031543;28;20494;-83
2022/06/28 03:51:46;;;;;;;22.83;12.10;;;;;;;;;;5030999;28;20498;-83
2022/06/28 03:54:12;;;;;;;16.67;11.80;;;;;;;;;;5031084;28;20278;-83
2022/06/28 03:56:38;;;;;;;17.67;11.00;;;;;;;;;;5029484;28;20449;-83
2022/06/28 03:59:04;;;;;;;15.90;10.30;;;;;;;;;;5030676;28;20046;-82
2022/06/28 04:01:31;;;;;;;14.18;10.77;;;;;;;;;;5031932;28;20068;-83
2022/06/28 04:03:57;;;;;;;13.90;10.45;;;;;;;;;;5031798;28;20401;-83
2022/06/28 04:06:23;;;;;;;15.32;10.27;;;;;;;;;;5030933;28;20490;-83
2022/06/28 04:08:49;;;;;;;16.77;10.43;;;;;;;;;;5032300;28;20049;-82
2022/06/28 04:11:15;;;;;;;12.27;10.38;;;;;;;;;;5028249;28;20072;-83
2022/06/28 04:13:42;;;;;;;12.80;9.95;;;;;;;;;;5030225;28;20057;-83
2022/06/28 04:16:08;;;;;;;16.42;9.93;;;;;;;;;;5029822;28;20398;-83
2022/06/28 04:18:36;;;;;;;16.63;9.10;;;;;;;;;;5030264;28;20128;-83
2022/06/28 04:21:02;;;;;;;13.57;8.82;;;;;;;;;;5029807;28;20103;-82
2022/06/28 04:23:29;;;;;;;13.30;8.70;;;;;;;;;;5029673;28;20049;-82
2022/06/28 04:25:55;;;;;;;15.75;8.57;;;;;;;;;;5030141;28;20893;-82
2022/06/28 04:28:21;;;;;;;11.70;7.30;;;;;;;;;;5029930;28;20049;-83
2022/06/28 04:30:47;;;;;;;11.95;7.57;;;;;;;;;;5029018;28;20046;-83
2022/06/28 04:33:13;;;;;;;10.30;6.90;;;;;;;;;;5030672;28;20053;-83
2022/06/28 04:35:39;;;;;;;11.48;7.18;;;;;;;;;;5031548;28;20037;-83
2022/06/28 04:38:05;;;;;;;10.77;6.60;;;;;;;;;;5031154;28;20041;-83
2022/06/28 04:40:31;;;;;;;8.93;5.90;;;;;;;;;;5012322;28;20092;-83
2022/06/28 04:42:57;;;;;;;11.13;5.40;;;;;;;;;;5028954;28;20394;-83
2022/06/28 04:45:23;;;;;;;10.30;5.25;;;;;;;;;;5031150;28;20049;-83
2022/06/28 04:47:49;;;;;;;10.35;5.25;;;;;;;;;;5030369;28;20049;-83
2022/06/28 04:50:15;;;;;;;10.48;4.45;;;;;;;;;;5029707;28;20045;-83
2022/06/28 04:52:41;;;;;;;8.80;4.80;;;;;;;;;;5029696;28;20050;-83
2022/06/28 04:55:07;;;;;;;9.10;4.43;;;;;;;;;;5029884;28;20397;-83
2022/06/28 04:57:33;;;;;;;7.85;4.93;;;;;;;;;;5029398;28;20049;-82
2022/06/28 04:59:59;;;;;;;6.70;4.20;;;;;;;;;;5010907;28;20057;-83
2022/06/28 05:02:26;;;;;;;8.80;4.03;;;;;;;;;;4992699;28;20129;-83
2022/06/28 05:04:52;;;;;;;7.55;4.47;;;;;;;;;;4989990;28;20057;-83
2022/06/28 05:07:18;;;;;;;8.73;4.63;;;;;;;;;;4991521;28;20046;-83
2022/06/28 05:09:44;;;;;;;9.95;4.43;;;;;;;;;;5001858;28;20125;-83
2022/06/28 05:12:10;;;;;;;8.13;4.43;;;;;;;;;;5009758;28;20037;-84
2022/06/28 05:14:36;;;;;;;8.73;4.63;;;;;;;;;;5009285;28;20042;-83
2022/06/28 05:17:02;;;;;;;9.50;4.57;;;;;;;;;;4992908;28;20041;-83
2022/06/28 05:19:30;;;;;;;8.15;4.10;;;;;;;;;;5010795;28;20088;-83
2022/06/28 05:21:56;;;;;;;8.57;4.22;;;;;;;;;;4976578;28;20042;-83
2022/06/28 05:24:22;;;;;;;6.57;3.83;;;;;;;;;;4992469;28;20042;-83
2022/06/28 05:26:49;;;;;;;8.00;4.05;;;;;;;;;;5009397;28;20042;-83
2022/06/28 05:29:15;;;;;;;6.05;3.55;;;;;;;;;;5009323;28;20143;-83
2022/06/28 05:31:41;;;;;;;7.55;3.58;;;;;;;;;;4993082;28;20406;-83
2022/06/28 05:34:08;;;;;;;7.15;4.13;;;;;;;;;;4992824;28;20057;-82
2022/06/28 05:36:34;;;;;;;6.53;3.70;;;;;;;;;;4993032;28;20072;-82
2022/06/28 05:39:00;;;;;;;5.90;3.70;;;;;;;;;;4991669;28;20045;-82
2022/06/28 05:41:26;;;;;;;7.50;3.90;;;;;;;;;;5005373;28;20049;-83
2022/06/28 05:43:52;;;;;;;6.50;3.30;;;;;;;;;;4993965;28;20459;-83
2022/06/28 05:46:18;;;;;;;6.80;3.75;;;;;;;;;;4992708;28;20053;-82
2022/06/28 05:48:44;;;;;;;10.20;3.50;;;;;;;;;;4992792;28;20049;-83
2022/06/28 05:51:10;;;;;;;6.22;3.55;;;;;;;;;;4991270;28;20031;-83
2022/06/28 05:53:36;;;;;;;9.07;3.55;;;;;;;;;;4987932;28;20441;-85
2022/06/28 05:56:02;;;;;;;8.52;3.85;;;;;;;;;;4988875;28;20050;-83
2022/06/28 05:58:28;;;;;;;7.40;3.78;;;;;;;;;;5005569;28;20103;-83
2022/06/28 06:00:54;;;;;;;7.47;3.67;;;;;;;;;;5028008;28;20107;-83
2022/06/28 06:03:20;;;;;;;8.48;3.40;;;;;;;;;;5021762;28;20033;-83
2022/06/28 06:05:46;;;;;;;6.70;3.50;;;;;;;;;;5030521;28;20116;-83
2022/06/28 06:08:13;;;;;;;8.90;3.42;;;;;;;;;;5027965;28;20180;-83
2022/06/28 06:10:39;;;;;;;5.60;2.80;;;;;;;;;;5028373;28;20041;-83
2022/06/28 06:13:05;;;;;;;6.82;3.30;;;;;;;;;;5028066;28;20110;-83
2022/06/28 06:15:31;;;;;;;7.78;3.60;;;;;;;;;;5029022;28;20051;-83
2022/06/28 06:17:57;;;;;;;7.55;3.22;;;;;;;;;;5029872;28;20042;-83
2022/06/28 06:20:24;;;;;;;9.27;3.47;;;;;;;;;;5028240;28;20045;-83
2022/06/28 06:22:50;;;;;;;9.40;4.00;;;;;;;;;;5027086;28;20621;-83
2022/06/28 06:25:18;;;;;;;8.02;3.17;;;;;;;;;;5028892;28;20045;-83
2022/06/28 06:27:45;;;;;;;8.07;3.45;;;;;;;;;;5029752;28;20077;-83
2022/06/28 06:30:11;;;;;;;9.27;3.70;;;;;;;;;;5026429;28;20042;-83
2022/06/28 06:32:37;;;;;;;10.10;3.50;;;;;;;;;;5010928;28;20410;-83
2022/06/28 06:35:03;;;;;;;8.20;3.50;;;;;;;;;;5029234;28;20049;-84
2022/06/28 06:37:29;;;;;;;8.40;3.38;;;;;;;;;;5027534;28;20486;-84
2022/06/28 06:39:55;;;;;;;7.07;3.03;;;;;;;;;;5022167;28;20436;-83
2022/06/28 06:42:21;;;;;;;7.88;3.00;;;;;;;;;;5033498;28;20505;-84
2022/06/28 06:44:47;;;;;;;8.00;3.33;;;;;;;;;;5032142;28;20053;-84
2022/06/28 06:47:13;;;;;;;7.28;3.10;;;;;;;;;;5032854;28;20061;-84
2022/06/28 06:49:40;;;;;;;8.10;2.97;;;;;;;;;;5032080;28;20045;-84
2022/06/28 06:52:06;;;;;;;8.82;2.80;;;;;;;;;;5027168;28;20042;-84
2022/06/28 06:54:32;;;;;;;10.70;3.45;;;;;;;;;;5030735;28;20046;-83
2022/06/28 06:56:58;;;;;;;10.70;3.33;;;;;;;;;;5032965;28;20099;-84
2022/06/28 06:59:24;;;;;;;6.63;2.90;;;;;;;;;;5017168;28;20053;-83
2022/06/28 07:01:50;;;;;;;6.30;2.88;;;;;;;;;;4984730;28;20089;-83
2022/06/28 07:04:16;;;;;;;10.05;2.80;;;;;;;;;;4976165;28;20046;-84
2022/06/28 07:06:43;;;;;;;10.30;3.28;;;;;;;;;;4991872;28;20120;-84
2022/06/28 07:09:09;;;;;;;8.00;3.30;;;;;;;;;;4994687;28;20517;-83
2022/06/28 07:11:35;;;;;;;6.57;2.88;;;;;;;;;;4994747;28;20422;-84
2022/06/28 07:14:01;;;;;;;11.88;2.90;;;;;;;;;;5012675;28;20436;-84
2022/06/28 07:16:27;;;;;;;9.27;3.08;;;;;;;;;;5013323;28;20069;-84
2022/06/28 07:18:53;;;;;;;8.45;2.88;;;;;;;;;;4995539;28;20054;-84
2022/06/28 07:21:19;;;;;;;7.40;2.53;;;;;;;;;;4984378;28;20129;-83
2022/06/28 07:23:47;;;;;;;9.68;2.95;;;;;;;;;;5009237;28;20042;-87
2022/06/28 07:26:13;;;;;;;5.13;2.65;;;;;;;;;;4995592;28;20053;-83
2022/06/28 07:28:39;;;;;;;6.38;2.50;;;;;;;;;;4994966;28;20056;-83
2022/06/28 07:31:05;;;;;;;8.10;2.58;;;;;;;;;;5012555;28;20045;-83
2022/06/28 07:33:31;;;;;;;6.20;2.47;;;;;;;;;;5013022;28;20277;-83
2022/06/28 07:35:57;;;;;;;11.00;2.85;;;;;;;;;;4964517;28;20051;-83
2022/06/28 07:38:23;;;;;;;5.72;2.50;;;;;;;;;;5007505;28;20054;-84
2022/06/28 07:40:49;;;;;;;7.80;2.53;;;;;;;;;;4995043;28;20056;-84
2022/06/28 07:43:15;;;;;;;8.65;2.67;;;;;;;;;;5010052;28;20414;-84
2022/06/28 07:45:41;;;;;;;6.38;2.53;;;;;;;;;;4975752;28;20050;-83
2022/06/28 07:48:08;;;;;;;6.05;2.33;;;;;;;;;;5009203;28;20046;-84
2022/06/28 07:53:20;;;;;;;6.53;2.45;;;;;;;;;;4993970;28;20502;-83
2022/06/28 07:55:46;;;;;;;7.30;2.20;;;;;;;;;;4994756;28;20100;-85
2022/06/28 07:58:12;;;;;;;6.50;2.63;;;;;;;;;;5010689;28;20061;-84
2022/06/28 08:00:38;;;;;;;4.38;2.22;;;;;;;;;;5010972;28;20053;-84
2022/06/28 08:03:05;;;;;;;6.35;2.33;;;;;;;;;;5012129;28;20092;-84
2022/06/28 08:05:31;;;;;;;5.95;2.25;;;;;;;;;;4994794;28;20061;-85
2022/06/28 08:07:57;;;;;;;6.93;2.33;;;;;;;;;;5011386;28;20498;-84
2022/06/28 08:10:23;;;;;;;5.63;2.40;;;;;;;;;;4991956;28;20103;-84
2022/06/28 08:12:49;;;;;;;5.88;2.50;;;;;;;;;;5012000;28;20057;-85
2022/06/28 08:15:15;;;;;;;6.93;2.50;;;;;;;;;;4989087;28;20046;-85
2022/06/28 08:17:41;;;;;;;6.38;2.33;;;;;;;;;;5011153;28;20487;-85
2022/06/28 08:20:07;;;;;;;3.92;2.17;;;;;;;;;;5012016;28;20038;-84
2022/06/28 08:22:33;;;;;;;5.72;2.28;;;;;;;;;;4993247;28;20494;-84
2022/06/28 08:24:59;;;;;;;4.63;2.28;;;;;;;;;;4994383;28;20041;-85
2022/06/28 08:27:25;;;;;;;5.30;2.20;;;;;;;;;;4994172;28;20152;-85
2022/06/28 08:29:51;;;;;;;7.45;2.67;;;;;;;;;;5010662;28;20185;-85
2022/06/28 08:32:20;;;;;;;5.50;2.20;;;;;;;;;;4994422;28;20057;-85
2022/06/28 08:34:46;;;;;;;6.80;2.80;;;;;;;;;;4994204;28;20054;-85
2022/06/28 08:37:13;;;;;;;5.70;2.20;;;;;;;;;;4992351;28;20057;-85
2022/06/28 08:39:39;;;;;;;5.93;2.50;;;;;;;;;;5007238;28;20376;-85
2022/06/28 08:42:06;;;;;;;8.38;2.53;;;;;;;;;;5003681;28;20372;-86
2022/06/28 08:44:35;;;;;;;8.35;2.55;;;;;;;;;;4983631;28;20176;-85
2022/06/28 08:47:02;;;;;;;5.53;2.40;;;;;;;;;;5005877;28;20490;-85
2022/06/28 08:49:36;;;;;;;8.68;2.67;;;;;;;;;;5010867;28;20041;-85
2022/06/28 08:52:03;;;;;;;4.07;2.10;;;;;;;;;;5009432;28;20045;-85
2022/06/28 08:54:29;;;;;;;7.05;2.33;;;;;;;;;;4973231;28;20056;-85
2022/06/28 08:56:55;;;;;;;5.78;2.70;;;;;;;;;;4993038;28;20042;-85
2022/06/28 08:59:22;;;;;;;3.97;2.10;;;;;;;;;;5020869;28;20081;-85
2022/06/28 09:01:49;;;;;;;7.28;2.50;;;;;;;;;;5030909;28;20459;-85
2022/06/28 09:04:15;;;;;;;4.72;2.20;;;;;;;;;;5028254;28;20093;-85
2022/06/28 09:06:41;;;;;;;6.47;2.30;;;;;;;;;;5028736;28;20037;-82
2022/06/28 09:09:07;;;;;;;6.75;2.08;;;;;;;;;;5029689;28;20073;-84
2022/06/28 09:11:42;;;;;;;9.77;2.75;;;;;;;;;;5027964;28;20037;-83
2022/06/28 09:14:28;;;;;;;6.88;2.20;;;;;;;;;;5025555;28;20045;-83
2022/06/28 09:16:55;;;;;;;4.45;2.28;;;;;;;;;;5015864;28;20053;-84
2022/06/28 09:19:34;;;;;;;5.97;2.58;;;;;;;;;;5030186;28;20124;-85
2022/06/28 09:22:01;;;;;;;7.15;2.15;;;;;;;;;;5028823;28;20049;-84
2022/06/28 09:24:27;;;;;;;5.93;1.95;;;;;;;;;;5030534;28;20045;-85
2022/06/28 09:27:19;;;;;;;4.15;2.08;;;;;;;;;;5027603;28;20052;-84
2022/06/28 09:29:47;;;;;;;7.00;2.53;;;;;;;;;;5025570;28;20569;-85
2022/06/28 09:32:13;;;;;;;5.70;2.40;;;;;;;;;;5028017;28;20132;-86
2022/06/28 09:34:56;;;;;;;4.70;2.00;;;;;;;;;;5028236;28;20045;-84
2022/06/28 09:37:37;;;;;;;26.67;3.53;;;;;;;;;;5027862;28;20049;-84
2022/06/28 09:40:11;;;;;;;4.57;1.90;;;;;;;;;;5029672;28;20489;-84
2022/06/28 09:42:38;;;;;;;5.40;2.10;;;;;;;;;;5030421;28;20180;-84
2022/06/28 09:45:04;;;;;;;4.38;1.95;;;;;;;;;;5028910;28;20456;-84
2022/06/28 09:47:30;;;;;;;5.75;2.20;;;;;;;;;;5028799;28;20563;-85
2022/06/28 09:49:56;;;;;;;7.43;2.65;;;;;;;;;;5024628;28;20038;-84
2022/06/28 09:52:27;;;;;;;4.55;2.10;;;;;;;;;;5024743;28;20049;-85
2022/06/28 09:54:55;;;;;;;5.90;2.20;;;;;;;;;;5028596;28;20520;-85
2022/06/28 09:57:21;;;;;;;6.65;2.10;;;;;;;;;;5026681;28;20560;-86
2022/06/28 09:59:49;;;;;;;7.50;2.42;;;;;;;;;;5028411;28;20106;-83
2022/06/28 10:02:17;;;;;;;6.10;2.10;;;;;;;;;;5028158;28;20115;-84
2022/06/28 10:04:44;;;;;;;5.47;2.33;;;;;;;;;;5013275;28;20042;-84
2022/06/28 10:07:11;;;;;;;4.88;2.17;;;;;;;;;;5010047;28;20041;-83
2022/06/28 10:09:37;;;;;;;6.55;2.42;;;;;;;;;;5022133;28;20064;-84
2022/06/28 10:15:01;;;;;;;5.33;2.20;;;;;;;;;;5026661;28;20041;-84
2022/06/28 10:17:39;;;;;;;5.78;2.20;;;;;;;;;;5027785;28;20076;-84
2022/06/28 10:20:06;;;;;;;4.03;2.30;;;;;;;;;;5028097;28;20045;-84
2022/06/28 10:22:32;;;;;;;4.18;1.92;;;;;;;;;;5029503;28;20056;-84
2022/06/28 10:24:59;;;;;;;5.70;2.30;;;;;;;;;;5028043;28;20046;-84
2022/06/28 10:27:26;;;;;;;5.07;2.42;;;;;;;;;;5029932;28;20041;-85
2022/06/28 10:30:15;;;;;;;4.72;2.10;;;;;;;;;;5029221;28;20141;-84
2022/06/28 10:32:44;;;;;;;3.90;2.00;;;;;;;;;;5020360;28;20099;-84
2022/06/28 10:35:10;;;;;;;5.28;2.40;;;;;;;;;;5038181;28;20406;-84
2022/06/28 10:37:56;;;;;;;6.00;2.10;;;;;;;;;;5013282;28;20041;-84
2022/06/28 10:40:25;;;;;;;4.65;2.17;;;;;;;;;;5041163;28;20445;-84
2022/06/28 10:42:52;;;;;;;5.93;2.50;;;;;;;;;;5049302;28;20486;-85
2022/06/28 10:45:21;;;;;;;6.18;2.35;;;;;;;;;;5049440;28;20055;-84
2022/06/28 10:48:05;;;;;;;5.55;2.33;;;;;;;;;;5049887;28;20119;-84
2022/06/28 10:50:31;;;;;;;7.43;2.20;;;;;;;;;;5030549;28;20048;-85
2022/06/28 10:53:01;;;;;;;5.00;2.10;;;;;;;;;;5027829;28;20090;-84
2022/06/28 10:55:27;;;;;;;5.75;2.58;;;;;;;;;;5029418;28;20482;-84
2022/06/28 10:58:06;;;;;;;5.90;2.53;;;;;;;;;;5026057;28;20049;-84
2022/06/28 11:00:35;;;;;;;4.78;2.15;;;;;;;;;;5005798;28;20054;-84
2022/06/28 11:03:03;;;;;;;5.53;2.35;;;;;;;;;;5009295;28;20072;-84
2022/06/28 11:05:48;;;;;;;5.25;2.15;;;;;;;;;;5009169;28;20514;-84
2022/06/28 11:08:40;;;;;;;5.25;2.08;;;;;;;;;;5008204;28;20514;-84
2022/06/28 11:11:07;;;;;;;6.20;2.05;;;;;;;;;;5005620;28;20124;-84
2022/06/28 11:13:33;;;;;;;3.58;2.30;;;;;;;;;;5009550;28;20053;-84
2022/06/28 11:15:59;;;;;;;5.40;2.35;;;;;;;;;;4973794;28;20096;-84
2022/06/28 11:18:25;;;;;;;5.32;2.10;;;;;;;;;;5009493;28;20100;-84
2022/06/28 11:20:52;;;;;;;5.70;2.38;;;;;;;;;;5008739;28;20041;-83
2022/06/28 11:23:22;;;;;;;4.82;2.28;;;;;;;;;;5008246;28;20053;-84
2022/06/28 11:28:33;;;;;;;5.57;2.40;;;;;;;;;;5011905;28;20058;-83
2022/06/28 11:30:59;;;;;;;6.72;2.78;;;;;;;;;;5010952;28;20057;-84
2022/06/28 11:33:31;;;;;;;5.97;2.60;;;;;;;;;;4995400;28;20508;-84
2022/06/28 11:36:01;;;;;;;6.90;2.80;;;;;;;;;;5012132;28;20517;-84
2022/06/28 11:38:27;;;;;;;4.90;2.22;;;;;;;;;;4994369;28;20078;-84
2022/06/28 11:40:55;;;;;;;7.07;2.47;;;;;;;;;;5012664;28;20084;-84
2022/06/28 11:43:25;;;;;;;7.15;2.40;;;;;;;;;;4995027;28;20045;-84
2022/06/28 11:45:52;;;;;;;8.02;2.58;;;;;;;;;;5010479;28;20049;-84
2022/06/28 11:48:20;;;;;;;5.20;2.60;;;;;;;;;;4978660;28;20084;-84
2022/06/28 11:50:47;;;;;;;6.95;2.50;;;;;;;;;;5012446;28;20076;-84
2022/06/28 11:53:14;;;;;;;5.95;2.65;;;;;;;;;;5010563;28;20181;-84
2022/06/28 11:55:47;;;;;;;7.63;2.58;;;;;;;;;;4978628;28;20045;-84
2022/06/28 11:58:15;;;;;;;6.45;2.65;;;;;;;;;;4998178;28;20092;-84
2022/06/28 12:00:41;;;;;;;5.88;2.35;;;;;;;;;;5030639;28;20045;-84
2022/06/28 12:03:08;;;;;;;5.93;2.60;;;;;;;;;;5032098;28;20048;-84
2022/06/28 12:05:35;;;;;;;6.25;2.50;;;;;;;;;;5022579;28;20100;-84
2022/06/28 12:08:02;;;;;;;9.05;2.78;;;;;;;;;;5024460;28;20406;-84
2022/06/28 12:10:32;;;;;;;6.07;2.95;;;;;;;;;;5032270;28;20044;-84
2022/06/28 12:12:59;;;;;;;5.45;2.60;;;;;;;;;;5029257;28;20088;-84
2022/06/28 12:15:26;;;;;;;7.22;2.60;;;;;;;;;;5012194;28;20046;-84
2022/06/28 12:17:52;;;;;;;5.07;2.50;;;;;;;;;;5010699;28;20057;-84
2022/06/28 12:20:18;;;;;;;7.55;2.80;;;;;;;;;;5010482;28;20045;-84
2022/06/28 12:22:55;;;;;;;4.97;2.60;;;;;;;;;;5026400;28;20077;-86
2022/06/28 12:25:21;;;;;;;8.75;2.70;;;;;;;;;;5026890;28;20064;-84
2022/06/28 12:27:47;;;;;;;6.53;2.50;;;;;;;;;;5027405;28;20402;-84
2022/06/28 12:30:13;;;;;;;6.75;2.15;;;;;;;;;;5028555;28;20346;-84
2022/06/28 12:32:40;;;;;;;6.07;2.53;;;;;;;;;;5030135;28;20056;-84
2022/06/28 12:35:08;;;;;;;5.60;2.30;;;;;;;;;;5025594;28;20120;-84
2022/06/28 12:37:34;;;;;;;7.32;2.55;;;;;;;;;;5010298;28;20434;-84
2022/06/28 12:40:01;;;;;;;4.78;2.25;;;;;;;;;;5010945;28;20072;-84
2022/06/28 12:42:29;;;;;;;4.97;2.25;;;;;;;;;;5015751;28;20124;-85
2022/06/28 12:44:56;;;;;;;5.55;2.17;;;;;;;;;;5016611;28;20033;-84
2022/06/28 12:47:22;;;;;;;5.60;2.20;;;;;;;;;;5024080;28;20478;-84
2022/06/28 12:49:48;;;;;;;5.85;2.40;;;;;;;;;;5030491;28;20045;-84
2022/06/28 12:52:15;;;;;;;4.65;2.13;;;;;;;;;;5028512;28;20046;-84
2022/06/28 12:54:41;;;;;;;6.75;2.45;;;;;;;;;;5032956;28;20398;-84
2022/06/28 12:57:07;;;;;;;3.25;1.85;;;;;;;;;;5026302;28;20137;-87
2022/06/28 12:59:33;;;;;;;4.43;1.90;;;;;;;;;;5026819;28;20049;-87
2022/06/28 13:01:59;;;;;;;4.10;2.15;;;;;;;;;;5027265;28;20061;-87
2022/06/28 13:04:25;;;;;;;4.07;1.80;;;;;;;;;;5030456;28;20052;-87
2022/06/28 13:06:51;;;;;;;5.57;2.17;;;;;;;;;;5030120;28;20521;-87
2022/06/28 13:09:17;;;;;;;2.90;1.90;;;;;;;;;;5028904;28;20107;-87
2022/06/28 13:11:43;;;;;;;4.65;1.92;;;;;;;;;;5030378;28;20759;-86
2022/06/28 13:14:09;;;;;;;5.95;1.90;;;;;;;;;;5020949;28;20508;-86
2022/06/28 13:16:36;;;;;;;5.05;2.10;;;;;;;;;;5015728;28;20046;-86
2022/06/28 13:19:02;;;;;;;6.05;2.03;;;;;;;;;;5003622;28;20522;-87
2022/06/28 13:21:28;;;;;;;5.22;2.25;;;;;;;;;;5026915;28;20502;-86
2022/06/28 13:23:54;;;;;;;4.20;2.13;;;;;;;;;;4998422;28;20205;-86
2022/06/28 13:26:20;;;;;;;3.60;1.83;;;;;;;;;;5021727;28;20092;-86
2022/06/28 13:28:47;;;;;;;5.97;2.30;;;;;;;;;;5029617;28;20120;-86
2022/06/28 13:31:13;;;;;;;5.10;2.22;;;;;;;;;;5025390;28;20582;-87
2022/06/28 13:33:39;;;;;;;5.82;2.50;;;;;;;;;;4999937;28;20037;-87
2022/06/28 13:36:05;;;;;;;5.47;2.22;;;;;;;;;;5028101;28;20453;-86
2022/06/28 13:38:31;;;;;;;3.92;2.10;;;;;;;;;;5016935;28;20042;-86
2022/06/28 13:56:54;;;;;;;7.88;2.47;;;;;;;;;;5091022;27;20634;-79
2022/06/28 13:59:20;;;;;;;8.68;2.47;;;;;;;;;;5089165;28;20044;-79
2022/06/28 14:01:46;;;;;;;9.68;2.50;;;;;;;;;;5089678;28;20516;-80
2022/06/28 14:04:16;;;;;;;6.20;2.40;;;;;;;;;;5090081;28;20398;-80
2022/06/28 14:06:42;;;;;;;8.60;2.67;;;;;;;;;;5076725;28;20483;-79
2022/06/28 14:09:08;;;;;;;5.20;2.42;;;;;;;;;;5080029;28;20105;-80
2022/06/28 14:11:34;;;;;;;6.43;2.65;;;;;;;;;;5090019;28;20044;-80
2022/06/28 14:14:00;;;;;;;5.18;2.22;;;;;;;;;;5089319;28;20056;-80
2022/06/28 14:16:27;;;;;;;6.45;2.40;;;;;;;;;;5091623;28;20051;-79
2022/06/28 14:18:53;;;;;;;7.78;2.53;;;;;;;;;;5097256;28;20084;-79
2022/06/28 14:21:19;;;;;;;5.32;2.28;;;;;;;;;;5088546;28;20036;-79
2022/06/28 14:23:45;;;;;;;6.70;2.45;;;;;;;;;;5081758;28;20085;-80
2022/06/28 14:26:11;;;;;;;4.50;2.25;;;;;;;;;;5096891;28;20131;-79
2022/06/28 14:28:37;;;;;;;4.13;2.30;;;;;;;;;;5096025;28;20454;-79
2022/06/28 14:31:03;;;;;;;5.60;2.40;;;;;;;;;;5098806;28;20127;-79
2022/06/28 14:33:29;;;;;;;7.65;2.97;;;;;;;;;;5098875;28;20044;-79
2022/06/28 14:35:55;;;;;;;5.43;2.65;;;;;;;;;;5097290;28;20037;-78
2022/06/28 14:38:23;;;;;;;7.35;2.55;;;;;;;;;;5099712;28;20051;-78
2022/06/28 14:40:49;;;;;;;7.70;2.85;;;;;;;;;;5090291;28;20047;-79
2022/06/28 14:43:15;;;;;;;9.25;2.85;;;;;;;;;;5093555;28;20037;-79
2022/06/28 14:45:41;;;;;;;7.65;2.40;;;;;;;;;;5078102;28;20095;-80
2022/06/28 14:48:09;;;;;;;5.00;2.22;;;;;;;;;;5083287;28;20090;-80
2022/06/28 14:50:36;;;;;;;5.15;2.67;;;;;;;;;;5093002;28;20048;-83
2022/06/28 14:53:02;;;;;;;7.45;2.72;;;;;;;;;;5085887;28;20045;-80
2022/06/28 14:55:28;;;;;;;7.07;2.53;;;;;;;;;;5095146;28;20059;-80
2022/06/28 14:57:54;;;;;;;5.80;2.63;;;;;;;;;;5090366;28;20076;-80
2022/06/28 15:00:20;;;;;;;6.47;2.50;;;;;;;;;;5085913;28;20044;-79
2022/06/28 15:02:47;;;;;;;5.50;2.65;;;;;;;;;;5086879;28;20511;-79
2022/06/28 15:05:13;;;;;;;6.65;2.83;;;;;;;;;;5090249;28;20096;-80